Jomi — C6VK4 — position and weather

sailwx.info

Track history (hours):
 
Tides and Currents Weather Stations Pressure Air Temp Water Temp Dewpoint Dewpoint Depression Visibility Wind Speed Wind Dir Waves Ship Positions

Jomi

Last reported at 2017-Mar-21 21:32 UTC. Time now 2017-Mar-24 13:52 UTC.
Position N 54°13' E 011°25'.

Length 88 m; draft 5.9 m.

Type: Cargo ship. MMSI: 309701000.

Date/timePositionNaut miles runAvg speedWind from/ knotsBaromVisibWave heightAir tempDewpointWater temp
2017-Mar-21 21:32N 54°13' E 011°25'1010.3
2017-Mar-21 20:33N 54°18' E 011°39'10 9.9
2017-Mar-21 19:33N 54°23' E 011°54'9 9.4
2017-Mar-21 18:33N 54°27' E 012°09'10 9.9
2017-Mar-21 17:33N 54°36' E 012°15'9 9.5
2017-Mar-21 16:33N 54°42' E 012°29'39 9.2
2017-Mar-21 12:18N 54°46' E 013°36'7 9.8
2017-Mar-21 11:33N 54°44' E 013°49'10 9.8
2017-Mar-21 10:33N 54°41' E 014°05'21 9.5
2017-Mar-21 08:18N 54°41' E 014°42'7 9.7
2017-Mar-21 07:33N 54°43' E 014°54'  
2017-Mar-16 23:31N 55°30' E 016°36'9 9.0
2017-Mar-16 22:34N 55°29' E 016°21'9 9.2
2017-Mar-16 21:33N 55°28' E 016°05'9 9.2
2017-Mar-16 20:34N 55°27' E 015°49'9 9.0
2017-Mar-16 19:33N 55°26' E 015°33'9 8.9
2017-Mar-16 18:33N 55°25' E 015°17'9 8.9
2017-Mar-16 17:34N 55°24' E 015°02'9 9.0
2017-Mar-16 16:33N 55°24' E 014°46'8 8.2
2017-Mar-16 15:33N 55°19' E 014°34'9 9.1
2017-Mar-16 14:33N 55°12' E 014°24'9 8.6
2017-Mar-16 13:32N 55°11' E 014°09'9 8.8
2017-Mar-16 12:33N 55°11' E 013°53'29 9.2
2017-Mar-16 09:21N 55°14' E 013°02'810.0
2017-Mar-16 08:32N 55°15' E 012°48'8 8.2
2017-Mar-16 07:34N 55°21' E 012°38'1010.0
2017-Mar-16 06:34N 55°31' E 012°41'1111.0
2017-Mar-16 05:34N 55°42' E 012°41'1110.8
2017-Mar-16 04:34N 55°52' E 012°39'1110.7
2017-Mar-16 03:34N 56°03' E 012°38'1211.8
2017-Mar-16 02:33N 56°10' E 012°21'1010.2
2017-Mar-16 01:33N 56°10' E 012°02'5010.1
2017-Mar-15 20:33N 56°04' E 010°33'1110.6
2017-Mar-15 19:33N 56°09' E 010°16'2 1.6
2017-Mar-15 18:33N 56°09' E 010°13'0 0.0
2017-Mar-15 17:32N 56°09' E 010°13'0 0.0
2017-Mar-15 16:32N 56°09' E 010°13'0 0.0
2017-Mar-15 15:32N 56°09' E 010°13'0 0.0
2017-Mar-15 14:32N 56°09' E 010°13'0 0.0
2017-Mar-15 13:32N 56°09' E 010°13'0 0.0
2017-Mar-15 12:32N 56°09' E 010°13'0 0.0
2017-Mar-15 11:32N 56°09' E 010°13'0 0.0
2017-Mar-15 10:32N 56°09' E 010°13'0 0.0
2017-Mar-15 09:32N 56°09' E 010°13'0 0.0
2017-Mar-15 08:31N 56°09' E 010°13'0 0.0
2017-Mar-15 07:31N 56°09' E 010°13'0 0.0
2017-Mar-15 06:31N 56°09' E 010°13'0 0.0
2017-Mar-15 05:31N 56°09' E 010°13'0 0.0
2017-Mar-15 04:31N 56°09' E 010°13'0 0.0
2017-Mar-15 03:31N 56°09' E 010°13'0 0.0
2017-Mar-15 02:31N 56°09' E 010°13'0 0.0
2017-Mar-15 01:31N 56°09' E 010°13'0 0.0
2017-Mar-15 00:31N 56°09' E 010°13'0 0.0
2017-Mar-14 23:31N 56°09' E 010°13'0 0.0
2017-Mar-14 22:31N 56°09' E 010°13'0 0.0
2017-Mar-14 21:31N 56°09' E 010°13'1 0.8
2017-Mar-14 20:33N 56°09' E 010°14'9 8.6
2017-Mar-14 19:32N 56°05' E 010°28'52 9.7
2017-Mar-14 14:12N 56°10' E 012°01'6 9.9
2017-Mar-14 13:34N 56°11' E 012°12'10 9.6
2017-Mar-14 12:33N 56°09' E 012°29'1010.3
2017-Mar-14 11:33N 56°01' E 012°41'10 9.8
2017-Mar-14 10:33N 55°51' E 012°44'1010.3
2017-Mar-14 09:34N 55°41' E 012°41'9 9.1
2017-Mar-14 08:33N 55°32' E 012°43'1010.2
2017-Mar-14 07:33N 55°22' E 012°41'9 9.2
2017-Mar-14 06:33N 55°16' E 012°54'3210.6
2017-Mar-14 03:33N 55°14' E 013°49'1110.6
2017-Mar-14 02:30N 55°13' E 014°09'9 9.7
2017-Mar-14 01:32N 55°18' E 014°23'1010.7
2017-Mar-14 00:34N 55°27' E 014°34'1010.4
2017-Mar-13 23:34N 55°32' E 014°50'1010.4
2017-Mar-13 22:34N 55°37' E 015°06'1010.4
2017-Mar-13 21:34N 55°42' E 015°22'1010.4
2017-Mar-13 20:34N 55°47' E 015°38'1110.5
2017-Mar-13 19:33N 55°52' E 015°54'1110.6
2017-Mar-13 18:33N 55°57' E 016°11'1010.5
2017-Mar-13 17:33N 56°03' E 016°27'1010.4
2017-Mar-13 16:33N 56°09' E 016°42'1010.2
2017-Mar-13 15:34N 56°15' E 016°57'  
Track history (hours):
 
Tides and Currents Weather Stations Pressure Air Temp Water Temp Dewpoint Dewpoint Depression Visibility Wind Speed Wind Dir Waves Ship Positions

Jomi

Last reported at 2017-Mar-21 21:32 UTC. Time now 2017-Mar-24 13:52 UTC.
Position N 54°13' E 011°25'.

Length 88 m; draft 5.9 m.

Type: Cargo ship. MMSI: 309701000.

Date/timePositionNaut miles runAvg speedWind from/ knotsBaromVisibWave heightAir tempDewpointWater temp
2017-Mar-21 21:32N 54°13' E 011°25'1010.3
2017-Mar-21 20:33N 54°18' E 011°39'10 9.9
2017-Mar-21 19:33N 54°23' E 011°54'9 9.4
2017-Mar-21 18:33N 54°27' E 012°09'10 9.9
2017-Mar-21 17:33N 54°36' E 012°15'9 9.5
2017-Mar-21 16:33N 54°42' E 012°29'39 9.2
2017-Mar-21 12:18N 54°46' E 013°36'7 9.8
2017-Mar-21 11:33N 54°44' E 013°49'10 9.8
2017-Mar-21 10:33N 54°41' E 014°05'21 9.5
2017-Mar-21 08:18N 54°41' E 014°42'7 9.7
2017-Mar-21 07:33N 54°43' E 014°54'  
2017-Mar-16 23:31N 55°30' E 016°36'9 9.0
2017-Mar-16 22:34N 55°29' E 016°21'9 9.2
2017-Mar-16 21:33N 55°28' E 016°05'9 9.2
2017-Mar-16 20:34N 55°27' E 015°49'9 9.0
2017-Mar-16 19:33N 55°26' E 015°33'9 8.9
2017-Mar-16 18:33N 55°25' E 015°17'9 8.9
2017-Mar-16 17:34N 55°24' E 015°02'9 9.0
2017-Mar-16 16:33N 55°24' E 014°46'8 8.2
2017-Mar-16 15:33N 55°19' E 014°34'9 9.1
2017-Mar-16 14:33N 55°12' E 014°24'9 8.6
2017-Mar-16 13:32N 55°11' E 014°09'9 8.8
2017-Mar-16 12:33N 55°11' E 013°53'29 9.2
2017-Mar-16 09:21N 55°14' E 013°02'810.0
2017-Mar-16 08:32N 55°15' E 012°48'8 8.2
2017-Mar-16 07:34N 55°21' E 012°38'1010.0
2017-Mar-16 06:34N 55°31' E 012°41'1111.0
2017-Mar-16 05:34N 55°42' E 012°41'1110.8
2017-Mar-16 04:34N 55°52' E 012°39'1110.7
2017-Mar-16 03:34N 56°03' E 012°38'1211.8
2017-Mar-16 02:33N 56°10' E 012°21'1010.2
2017-Mar-16 01:33N 56°10' E 012°02'5010.1
2017-Mar-15 20:33N 56°04' E 010°33'1110.6
2017-Mar-15 19:33N 56°09' E 010°16'2 1.6
2017-Mar-15 18:33N 56°09' E 010°13'0 0.0
2017-Mar-15 17:32N 56°09' E 010°13'0 0.0
2017-Mar-15 16:32N 56°09' E 010°13'0 0.0
2017-Mar-15 15:32N 56°09' E 010°13'0 0.0
2017-Mar-15 14:32N 56°09' E 010°13'0 0.0
2017-Mar-15 13:32N 56°09' E 010°13'0 0.0
2017-Mar-15 12:32N 56°09' E 010°13'0 0.0
2017-Mar-15 11:32N 56°09' E 010°13'0 0.0
2017-Mar-15 10:32N 56°09' E 010°13'0 0.0
2017-Mar-15 09:32N 56°09' E 010°13'0 0.0
2017-Mar-15 08:31N 56°09' E 010°13'0 0.0
2017-Mar-15 07:31N 56°09' E 010°13'0 0.0
2017-Mar-15 06:31N 56°09' E 010°13'0 0.0
2017-Mar-15 05:31N 56°09' E 010°13'0 0.0
2017-Mar-15 04:31N 56°09' E 010°13'0 0.0
2017-Mar-15 03:31N 56°09' E 010°13'0 0.0
2017-Mar-15 02:31N 56°09' E 010°13'0 0.0
2017-Mar-15 01:31N 56°09' E 010°13'0 0.0
2017-Mar-15 00:31N 56°09' E 010°13'0 0.0
2017-Mar-14 23:31N 56°09' E 010°13'0 0.0
2017-Mar-14 22:31N 56°09' E 010°13'0 0.0
2017-Mar-14 21:31N 56°09' E 010°13'1 0.8
2017-Mar-14 20:33N 56°09' E 010°14'9 8.6
2017-Mar-14 19:32N 56°05' E 010°28'52 9.7
2017-Mar-14 14:12N 56°10' E 012°01'6 9.9
2017-Mar-14 13:34N 56°11' E 012°12'10 9.6
2017-Mar-14 12:33N 56°09' E 012°29'1010.3
2017-Mar-14 11:33N 56°01' E 012°41'10 9.8
2017-Mar-14 10:33N 55°51' E 012°44'1010.3
2017-Mar-14 09:34N 55°41' E 012°41'9 9.1
2017-Mar-14 08:33N 55°32' E 012°43'1010.2
2017-Mar-14 07:33N 55°22' E 012°41'9 9.2
2017-Mar-14 06:33N 55°16' E 012°54'3210.6
2017-Mar-14 03:33N 55°14' E 013°49'1110.6
2017-Mar-14 02:30N 55°13' E 014°09'9 9.7
2017-Mar-14 01:32N 55°18' E 014°23'1010.7
2017-Mar-14 00:34N 55°27' E 014°34'1010.4
2017-Mar-13 23:34N 55°32' E 014°50'1010.4
2017-Mar-13 22:34N 55°37' E 015°06'1010.4
2017-Mar-13 21:34N 55°42' E 015°22'1010.4
2017-Mar-13 20:34N 55°47' E 015°38'1110.5
2017-Mar-13 19:33N 55°52' E 015°54'1110.6
2017-Mar-13 18:33N 55°57' E 016°11'1010.5
2017-Mar-13 17:33N 56°03' E 016°27'1010.4
2017-Mar-13 16:33N 56°09' E 016°42'1010.2
2017-Mar-13 15:34N 56°15' E 016°57'  

Dump ship's entire track history